Time;durP1;ratioP1;P1;durP2;ratioP2;P2;SDS_P1;SDS_P2;PMS_P1;PMS_P2;Temp;Humidity;BMP_temperature;BMP_pressure;BME280_temperature;BME280_humidity;BME280_pressure;Samples;Min_cycle;Max_cycle;Signal;HPM_P1;HPM_P2
2021/07/16 00:02:23;;;;;;;18.77;4.68;;;17.20;99.90;;;;;;3576335;40;20045;-78
2021/07/16 00:04:48;;;;;;;17.40;4.57;;;17.20;99.90;;;;;;3576050;40;20044;-76
2021/07/16 00:07:14;;;;;;;15.52;4.93;;;17.20;99.90;;;;;;3575884;40;20611;-77
2021/07/16 00:09:40;;;;;;;16.38;5.57;;;17.10;99.90;;;;;;3575851;40;20079;-76
2021/07/16 00:12:06;;;;;;;20.25;5.15;;;17.10;99.90;;;;;;3575953;40;20037;-80
2021/07/16 00:14:32;;;;;;;10.18;3.88;;;17.10;99.90;;;;;;3576642;40;20056;-77
2021/07/16 00:16:59;;;;;;;13.55;4.38;;;17.10;99.90;;;;;;3583462;40;20045;-77
2021/07/16 00:19:25;;;;;;;16.70;5.07;;;17.10;99.90;;;;;;3583604;40;20363;-78
2021/07/16 00:21:51;;;;;;;15.70;5.18;;;17.00;99.90;;;;;;3586017;40;20051;-77
2021/07/16 00:24:17;;;;;;;18.13;5.22;;;17.00;99.90;;;;;;3585982;40;20077;-78
2021/07/16 00:26:46;;;;;;;14.20;4.15;;;17.00;99.90;;;;;;3585668;40;20059;-77
2021/07/16 00:29:12;;;;;;;13.88;3.50;;;17.00;99.90;;;;;;3579968;40;20044;-78
2021/07/16 00:31:38;;;;;;;16.00;5.40;;;17.00;99.90;;;;;;3574403;40;20040;-78
2021/07/16 00:34:04;;;;;;;16.52;4.65;;;17.00;99.90;;;;;;3576180;40;20047;-77
2021/07/16 00:36:30;;;;;;;21.75;4.95;;;17.00;99.90;;;;;;3585869;40;20046;-76
2021/07/16 00:38:56;;;;;;;15.20;4.00;;;17.00;99.90;;;;;;3579700;40;20041;-77
2021/07/16 00:41:22;;;;;;;11.95;4.47;;;17.00;99.90;;;;;;3575737;40;20057;-78
2021/07/16 00:43:48;;;;;;;12.82;4.45;;;17.00;99.90;;;;;;3577211;40;20041;-79
2021/07/16 00:46:14;;;;;;;15.07;4.93;;;17.00;99.90;;;;;;3566553;40;20045;-76
2021/07/16 00:48:40;;;;;;;17.92;3.50;;;17.00;99.90;;;;;;3576853;40;20578;-78
2021/07/16 00:51:06;;;;;;;14.35;3.50;;;17.00;99.90;;;;;;3575853;40;20040;-77
2021/07/16 00:53:31;;;;;;;15.98;4.22;;;16.90;99.90;;;;;;3570084;40;20420;-75
2021/07/16 00:55:57;;;;;;;17.42;4.53;;;17.00;99.90;;;;;;3585953;40;20049;-78
2021/07/16 00:58:23;;;;;;;15.18;4.88;;;16.90;99.90;;;;;;3581908;40;20073;-77
2021/07/16 01:00:49;;;;;;;19.00;4.43;;;17.00;99.90;;;;;;3575706;40;20252;-77
2021/07/16 01:03:15;;;;;;;15.90;3.60;;;16.90;99.90;;;;;;3575798;40;20041;-78
2021/07/16 01:05:42;;;;;;;16.88;4.30;;;16.90;99.90;;;;;;3574679;40;20085;-79
2021/07/16 01:08:09;;;;;;;12.27;3.17;;;16.90;99.90;;;;;;3576484;40;20037;-78
2021/07/16 01:10:35;;;;;;;20.75;4.88;;;16.90;99.90;;;;;;3577547;40;20041;-80
2021/07/16 01:13:02;;;;;;;17.38;3.65;;;16.90;99.90;;;;;;3577089;40;20056;-80
2021/07/16 01:15:32;;;;;;;14.48;3.67;;;16.90;99.90;;;;;;3568995;40;20037;-76
2021/07/16 01:17:58;;;;;;;10.65;3.95;;;16.90;99.90;;;;;;3571922;40;20043;-79
2021/07/16 01:20:27;;;;;;;19.55;5.20;;;16.90;99.90;;;;;;3577555;40;20281;-78
2021/07/16 01:22:55;;;;;;;17.80;4.15;;;16.90;99.90;;;;;;3577067;40;20037;-77
2021/07/16 01:25:25;;;;;;;12.65;3.22;;;16.90;99.90;;;;;;3577201;40;20073;-79
2021/07/16 01:27:55;;;;;;;17.95;4.85;;;16.90;99.90;;;;;;3577854;40;20122;-79
2021/07/16 01:30:24;;;;;;;22.10;5.43;;;16.90;99.90;;;;;;3579671;40;20280;-76
2021/07/16 01:32:50;;;;;;;20.33;5.05;;;16.90;99.90;;;;;;3576756;40;20126;-78
2021/07/16 01:35:17;;;;;;;22.40;4.82;;;16.90;99.90;;;;;;3576529;40;20037;-75
2021/07/16 01:37:44;;;;;;;19.67;5.10;;;16.90;99.90;;;;;;3576555;40;20037;-75
2021/07/16 01:40:15;;;;;;;18.83;3.45;;;16.90;99.90;;;;;;3576703;40;20041;-77
2021/07/16 01:42:50;;;;;;;19.17;4.20;;;16.90;99.90;;;;;;3576592;40;20037;-76
2021/07/16 01:45:20;;;;;;;22.23;5.75;;;16.90;99.90;;;;;;3576832;40;20044;-74
2021/07/16 01:47:51;;;;;;;20.58;5.28;;;16.90;99.90;;;;;;3576669;40;20054;-75
2021/07/16 01:50:17;;;;;;;16.02;4.20;;;16.90;99.90;;;;;;3576604;40;20048;-76
2021/07/16 01:52:45;;;;;;;17.95;4.55;;;16.90;99.90;;;;;;3567180;40;20105;-75
2021/07/16 01:55:13;;;;;;;14.68;4.80;;;16.90;99.90;;;;;;3577096;40;20326;-76
2021/07/16 01:57:38;;;;;;;21.40;4.65;;;16.90;99.90;;;;;;3586591;40;20343;-75
2021/07/16 02:00:10;;;;;;;21.70;4.72;;;16.90;99.90;;;;;;3581685;40;20044;-75
2021/07/16 02:02:44;;;;;;;20.40;4.68;;;16.90;99.90;;;;;;3576256;40;20048;-77
2021/07/16 02:05:10;;;;;;;15.82;3.42;;;16.90;99.90;;;;;;3567612;40;20045;-75
2021/07/16 02:07:35;;;;;;;13.27;4.22;;;16.90;99.90;;;;;;3581690;40;20312;-75
2021/07/16 02:10:01;;;;;;;12.70;4.43;;;16.90;99.90;;;;;;3586615;40;20049;-75
2021/07/16 02:12:27;;;;;;;23.05;4.68;;;16.90;99.90;;;;;;3575785;40;20088;-75
2021/07/16 02:14:53;;;;;;;21.27;3.45;;;16.90;99.90;;;;;;3576708;40;20336;-75
2021/07/16 02:17:19;;;;;;;26.23;4.50;;;16.90;99.90;;;;;;3576642;40;20060;-75
2021/07/16 02:19:46;;;;;;;14.13;3.60;;;16.90;99.90;;;;;;3576007;40;20088;-76
2021/07/16 02:22:12;;;;;;;21.45;5.18;;;16.90;99.90;;;;;;3576374;40;20047;-76
2021/07/16 02:24:38;;;;;;;23.00;4.10;;;16.90;99.90;;;;;;3575909;40;20061;-76
2021/07/16 02:27:04;;;;;;;21.95;4.90;;;16.90;99.90;;;;;;3576662;40;20052;-76
2021/07/16 02:29:33;;;;;;;15.90;3.55;;;16.90;99.90;;;;;;3577928;40;20048;-76
2021/07/16 02:31:59;;;;;;;21.58;5.35;;;16.90;99.90;;;;;;3576581;40;20040;-77
2021/07/16 02:34:25;;;;;;;19.17;4.65;;;16.90;99.90;;;;;;3576423;40;20073;-75
2021/07/16 02:36:51;;;;;;;17.67;4.68;;;16.90;99.90;;;;;;3576354;40;20045;-76
2021/07/16 02:39:16;;;;;;;22.05;4.82;;;16.90;99.90;;;;;;3581376;40;20118;-76
2021/07/16 02:41:42;;;;;;;19.10;3.60;;;16.90;99.90;;;;;;3576907;40;20040;-76
2021/07/16 02:44:08;;;;;;;22.73;4.85;;;16.90;99.90;;;;;;3586561;40;20044;-77
2021/07/16 02:46:34;;;;;;;20.35;4.68;;;16.90;99.90;;;;;;3585467;40;20051;-76
2021/07/16 02:48:59;;;;;;;25.35;5.55;;;16.90;99.90;;;;;;3586095;40;20048;-77
2021/07/16 02:51:25;;;;;;;26.80;4.38;;;16.90;99.90;;;;;;3586223;40;20052;-77
2021/07/16 02:53:51;;;;;;;18.33;3.42;;;16.90;99.90;;;;;;3572876;40;20036;-78
2021/07/16 02:56:17;;;;;;;17.33;4.10;;;16.90;99.90;;;;;;3585903;40;20044;-76
2021/07/16 02:58:43;;;;;;;18.95;5.43;;;16.90;99.90;;;;;;3576949;40;20036;-79
2021/07/16 03:01:08;;;;;;;34.58;5.28;;;16.90;99.90;;;;;;3586214;40;20124;-75
2021/07/16 03:03:34;;;;;;;21.08;4.85;;;16.90;99.90;;;;;;3586119;40;20047;-75
2021/07/16 03:06:00;;;;;;;24.98;4.88;;;16.90;99.90;;;;;;3586365;40;20052;-75
2021/07/16 03:08:26;;;;;;;25.15;5.22;;;16.90;99.90;;;;;;3585444;40;20125;-74
2021/07/16 03:10:52;;;;;;;22.13;5.10;;;16.90;99.90;;;;;;3586054;40;20048;-76
2021/07/16 03:13:18;;;;;;;18.08;3.83;;;16.90;99.90;;;;;;3583609;40;20125;-77
2021/07/16 03:15:45;;;;;;;23.80;4.05;;;16.90;99.90;;;;;;3582397;40;20032;-75
2021/07/16 03:18:11;;;;;;;19.63;4.28;;;16.90;99.90;;;;;;3570512;40;20043;-75
2021/07/16 03:20:42;;;;;;;22.30;4.35;;;16.90;99.90;;;;;;3586052;40;20051;-75
2021/07/16 03:23:09;;;;;;;19.55;3.47;;;16.90;99.90;;;;;;3586240;40;20064;-76
2021/07/16 03:25:36;;;;;;;24.92;4.97;;;16.90;99.90;;;;;;3586264;40;20302;-75
2021/07/16 03:28:06;;;;;;;24.88;5.68;;;16.90;99.90;;;;;;3582254;40;20040;-76
2021/07/16 03:30:33;;;;;;;20.45;3.53;;;16.90;99.90;;;;;;3579054;40;20055;-75
2021/07/16 03:32:59;;;;;;;18.60;3.13;;;16.90;99.90;;;;;;3581127;40;20037;-75
2021/07/16 03:35:26;;;;;;;20.98;3.95;;;16.90;99.90;;;;;;3586153;40;20040;-77
2021/07/16 03:37:55;;;;;;;24.23;3.92;;;16.90;99.90;;;;;;3586254;40;20129;-77
2021/07/16 03:40:27;;;;;;;25.40;4.45;;;16.90;99.90;;;;;;3576810;40;20041;-77
2021/07/16 03:42:53;;;;;;;23.98;6.38;;;16.90;99.90;;;;;;3576105;40;20048;-77
2021/07/16 03:45:18;;;;;;;16.65;4.22;;;16.90;99.90;;;;;;3576466;40;20045;-77
2021/07/16 03:47:47;;;;;;;18.00;4.00;;;16.90;99.90;;;;;;3572462;40;20149;-78
2021/07/16 03:50:15;;;;;;;23.50;5.07;;;16.90;99.90;;;;;;3586383;40;20084;-77
2021/07/16 03:52:41;;;;;;;18.55;4.72;;;16.90;99.90;;;;;;3585063;40;20067;-78
2021/07/16 03:55:09;;;;;;;25.13;5.45;;;16.90;99.90;;;;;;3578846;40;20048;-77
2021/07/16 03:57:36;;;;;;;17.98;3.83;;;16.90;99.90;;;;;;3586131;40;20332;-77
2021/07/16 04:00:05;;;;;;;19.75;4.18;;;16.90;99.90;;;;;;3580824;40;20383;-78
2021/07/16 04:02:32;;;;;;;15.05;3.45;;;16.90;99.90;;;;;;3585931;40;20044;-78
2021/07/16 04:04:58;;;;;;;18.33;4.38;;;16.90;99.90;;;;;;3586152;40;20375;-76
2021/07/16 04:07:29;;;;;;;17.33;4.25;;;16.90;99.90;;;;;;3585772;40;20146;-76
2021/07/16 04:09:56;;;;;;;17.85;4.45;;;16.90;99.90;;;;;;3585796;40;20040;-77
2021/07/16 04:12:22;;;;;;;24.27;4.93;;;16.90;99.90;;;;;;3579378;40;20045;-77
2021/07/16 04:14:53;;;;;;;18.25;4.18;;;16.90;99.90;;;;;;3575604;40;20045;-76
2021/07/16 04:17:23;;;;;;;22.88;4.07;;;16.90;99.90;;;;;;3575846;40;20236;-77
2021/07/16 04:19:49;;;;;;;23.05;4.70;;;16.90;99.90;;;;;;3584578;40;20064;-76
2021/07/16 04:22:17;;;;;;;24.13;7.20;;;16.90;99.90;;;;;;3585528;40;20134;-77
2021/07/16 04:24:44;;;;;;;23.42;4.55;;;16.90;99.90;;;;;;3585583;40;20041;-75
2021/07/16 04:27:11;;;;;;;19.35;4.43;;;16.90;99.90;;;;;;3585708;40;20041;-76
2021/07/16 04:29:37;;;;;;;19.08;4.38;;;16.90;99.90;;;;;;3583166;40;20036;-75
2021/07/16 04:32:05;;;;;;;24.27;5.90;;;16.90;99.90;;;;;;3563405;40;20060;-76
2021/07/16 04:34:32;;;;;;;18.77;6.35;;;16.90;99.90;;;;;;3575725;40;20044;-75
2021/07/16 04:36:59;;;;;;;20.80;6.63;;;16.90;99.90;;;;;;3566454;40;20232;-76
2021/07/16 04:39:25;;;;;;;18.77;5.70;;;16.90;99.90;;;;;;3575730;40;20036;-75
2021/07/16 04:41:51;;;;;;;20.88;4.47;;;16.90;99.90;;;;;;3575425;40;20116;-75
2021/07/16 04:44:20;;;;;;;27.88;6.78;;;16.90;99.90;;;;;;3577316;40;20049;-75
2021/07/16 04:46:46;;;;;;;19.65;6.05;;;17.00;99.90;;;;;;3576955;40;20045;-76
2021/07/16 04:49:12;;;;;;;29.85;6.63;;;16.90;99.90;;;;;;3577159;40;20537;-75
2021/07/16 04:51:38;;;;;;;25.83;6.25;;;17.00;99.90;;;;;;3577052;40;20051;-75
2021/07/16 04:54:05;;;;;;;26.33;6.13;;;17.00;99.90;;;;;;3583911;40;20047;-75
2021/07/16 04:56:32;;;;;;;23.23;4.55;;;17.00;99.90;;;;;;3587040;40;20055;-75
2021/07/16 04:58:58;;;;;;;24.38;4.78;;;17.00;99.90;;;;;;3579973;40;20069;-75
2021/07/16 05:01:26;;;;;;;25.80;6.32;;;17.00;99.90;;;;;;3580892;40;20033;-75
2021/07/16 05:03:53;;;;;;;19.10;5.53;;;17.00;99.90;;;;;;3582785;40;20051;-75
2021/07/16 05:06:20;;;;;;;24.20;6.32;;;17.00;99.90;;;;;;3581344;40;20047;-75
2021/07/16 05:08:47;;;;;;;27.23;6.18;;;17.10;99.90;;;;;;3584966;40;20044;-75
2021/07/16 05:11:14;;;;;;;23.33;6.18;;;17.00;99.90;;;;;;3583027;40;20049;-74
2021/07/16 05:13:41;;;;;;;24.13;4.78;;;17.10;99.90;;;;;;3585320;40;20072;-75
2021/07/16 05:16:09;;;;;;;20.88;6.45;;;17.10;99.90;;;;;;3584768;40;20615;-75
2021/07/16 05:18:35;;;;;;;26.88;6.00;;;17.10;99.90;;;;;;3584632;40;20047;-75
2021/07/16 05:21:03;;;;;;;26.75;5.60;;;17.10;99.90;;;;;;3576512;40;20040;-75
2021/07/16 05:23:29;;;;;;;30.20;6.35;;;17.10;99.90;;;;;;3586589;40;20040;-76
2021/07/16 05:25:55;;;;;;;20.38;6.07;;;17.10;99.90;;;;;;3580965;40;20370;-76
2021/07/16 05:28:22;;;;;;;28.52;6.47;;;17.20;99.90;;;;;;3583448;40;20055;-75
2021/07/16 05:30:48;;;;;;;31.98;6.25;;;17.20;99.90;;;;;;3578424;40;20041;-77
2021/07/16 05:33:15;;;;;;;23.67;6.00;;;17.20;99.90;;;;;;3575018;40;20040;-75
2021/07/16 05:35:41;;;;;;;24.05;5.72;;;17.20;99.90;;;;;;3582988;40;20331;-75
2021/07/16 05:38:08;;;;;;;22.52;5.72;;;17.20;99.90;;;;;;3584641;40;20080;-75
2021/07/16 05:40:35;;;;;;;29.20;6.65;;;17.20;99.90;;;;;;3584322;40;20272;-75
2021/07/16 05:43:06;;;;;;;21.45;5.10;;;17.20;99.90;;;;;;3584672;40;20230;-76
2021/07/16 05:45:32;;;;;;;24.08;5.28;;;17.20;99.90;;;;;;3586230;40;20036;-75
2021/07/16 05:48:00;;;;;;;21.58;6.05;;;17.20;99.90;;;;;;3584207;40;20076;-76
2021/07/16 05:50:26;;;;;;;17.33;5.15;;;17.20;99.90;;;;;;3574207;40;20047;-78
2021/07/16 05:52:52;;;;;;;19.73;4.63;;;17.20;99.90;;;;;;3581934;40;20052;-77
2021/07/16 05:55:18;;;;;;;26.58;6.00;;;17.30;99.90;;;;;;3583417;40;20072;-77
2021/07/16 05:57:44;;;;;;;27.17;5.43;;;17.30;99.90;;;;;;3583840;40;20047;-78
2021/07/16 06:00:10;;;;;;;21.67;6.07;;;17.30;99.90;;;;;;3584455;40;20105;-76
2021/07/16 06:02:36;;;;;;;23.10;6.00;;;17.30;99.90;;;;;;3585238;40;20047;-75
2021/07/16 06:05:03;;;;;;;18.45;4.00;;;17.30;99.90;;;;;;3584991;40;20082;-76
2021/07/16 06:07:28;;;;;;;21.25;6.18;;;17.40;99.90;;;;;;3586430;40;20044;-77
2021/07/16 06:09:54;;;;;;;21.52;5.50;;;17.40;99.90;;;;;;3577256;40;20312;-77
2021/07/16 06:12:22;;;;;;;25.73;7.03;;;17.40;99.90;;;;;;3583200;40;20042;-77
2021/07/16 06:14:54;;;;;;;22.63;5.85;;;17.40;99.90;;;;;;3582669;40;20588;-77
2021/07/16 06:17:21;;;;;;;27.10;5.88;;;17.40;99.90;;;;;;3576395;40;20051;-77
2021/07/16 06:19:47;;;;;;;26.85;6.80;;;17.40;99.90;;;;;;3581598;40;20335;-78
2021/07/16 06:22:13;;;;;;;28.92;6.75;;;17.40;99.90;;;;;;3570453;40;20044;-76
2021/07/16 06:24:39;;;;;;;20.95;5.28;;;17.40;99.90;;;;;;3581095;40;20040;-77
2021/07/16 06:27:05;;;;;;;24.70;5.70;;;17.40;99.90;;;;;;3583639;40;20052;-79
2021/07/16 06:29:32;;;;;;;22.45;5.55;;;17.40;99.90;;;;;;3581460;40;20079;-76
2021/07/16 06:31:58;;;;;;;23.85;4.85;;;17.50;99.90;;;;;;3583000;40;20037;-76
2021/07/16 06:34:24;;;;;;;21.02;5.25;;;17.50;99.90;;;;;;3583579;40;20067;-77
2021/07/16 06:36:50;;;;;;;20.42;4.93;;;17.50;99.90;;;;;;3585374;40;20496;-77
2021/07/16 06:39:16;;;;;;;26.33;5.80;;;17.50;99.90;;;;;;3584862;40;20044;-77
2021/07/16 06:41:42;;;;;;;22.90;6.07;;;17.50;99.90;;;;;;3581226;40;20048;-76
2021/07/16 06:44:10;;;;;;;25.25;6.07;;;17.50;99.90;;;;;;3578039;40;20257;-75
2021/07/16 06:46:36;;;;;;;25.13;5.75;;;17.50;99.90;;;;;;3577756;40;20049;-75
2021/07/16 06:49:02;;;;;;;26.48;5.65;;;17.60;99.90;;;;;;3577511;40;20037;-75
2021/07/16 06:51:30;;;;;;;27.42;7.03;;;17.50;99.90;;;;;;3577859;40;20051;-75
2021/07/16 06:53:57;;;;;;;23.15;7.43;;;17.60;99.90;;;;;;3578270;40;20063;-76
2021/07/16 06:56:23;;;;;;;31.08;6.60;;;17.60;99.90;;;;;;3568685;40;20137;-75
2021/07/16 06:58:52;;;;;;;20.92;6.57;;;17.60;99.90;;;;;;3577325;40;20039;-75
2021/07/16 07:01:19;;;;;;;31.77;6.22;;;17.60;99.90;;;;;;3577749;40;20321;-76
2021/07/16 07:03:44;;;;;;;25.58;5.13;;;17.60;99.90;;;;;;3578670;40;20336;-76
2021/07/16 07:06:10;;;;;;;21.95;5.18;;;17.60;99.90;;;;;;3576356;40;20033;-76
2021/07/16 07:08:37;;;;;;;26.02;6.22;;;17.60;99.90;;;;;;3576214;40;20048;-76
2021/07/16 07:11:04;;;;;;;23.98;5.93;;;17.70;99.90;;;;;;3568302;40;20057;-76
2021/07/16 07:13:30;;;;;;;33.88;6.65;;;17.70;99.90;;;;;;3577609;40;20044;-76
2021/07/16 07:15:55;;;;;;;28.73;5.63;;;17.60;99.90;;;;;;3568629;40;20041;-79
2021/07/16 07:18:21;;;;;;;28.02;6.63;;;17.70;99.90;;;;;;3577778;40;20040;-76
2021/07/16 07:20:47;;;;;;;26.77;6.00;;;17.70;99.90;;;;;;3577381;40;20052;-76
2021/07/16 07:23:13;;;;;;;20.35;6.72;;;17.80;99.90;;;;;;3580316;40;20125;-75
2021/07/16 07:25:39;;;;;;;15.70;5.13;;;17.70;99.90;;;;;;3564920;40;20037;-75
2021/07/16 07:28:05;;;;;;;27.73;6.47;;;17.70;99.90;;;;;;3577025;40;20036;-76
2021/07/16 07:30:32;;;;;;;26.42;5.68;;;17.80;99.90;;;;;;3578327;40;20055;-77
2021/07/16 07:32:58;;;;;;;29.48;7.90;;;17.80;99.90;;;;;;3560816;40;20047;-76
2021/07/16 07:35:24;;;;;;;22.15;6.35;;;17.90;99.90;;;;;;3577561;40;20049;-76
2021/07/16 07:37:50;;;;;;;22.90;6.80;;;17.90;99.90;;;;;;3576502;40;20054;-75
2021/07/16 07:40:16;;;;;;;25.88;7.18;;;17.90;99.90;;;;;;3568141;40;20131;-75
2021/07/16 07:42:46;;;;;;;17.13;4.75;;;17.90;99.90;;;;;;3576483;40;20746;-77
2021/07/16 07:45:13;;;;;;;23.15;5.88;;;18.00;99.90;;;;;;3568287;40;20043;-74
2021/07/16 07:47:39;;;;;;;20.20;7.00;;;18.00;99.90;;;;;;3576909;40;20229;-75
2021/07/16 07:50:09;;;;;;;18.52;6.18;;;18.00;99.90;;;;;;3579061;40;20047;-76
2021/07/16 07:52:35;;;;;;;26.38;6.60;;;18.10;99.90;;;;;;3568476;40;20041;-76
2021/07/16 07:55:00;;;;;;;24.70;5.55;;;18.10;99.90;;;;;;3578099;40;20217;-76
2021/07/16 07:57:26;;;;;;;24.90;6.82;;;18.20;99.90;;;;;;3577650;40;20064;-75
2021/07/16 07:59:54;;;;;;;28.77;6.63;;;18.20;99.90;;;;;;3560073;40;20043;-76
2021/07/16 08:02:21;;;;;;;24.25;5.82;;;18.20;99.90;;;;;;3568112;40;20037;-77
2021/07/16 08:04:47;;;;;;;25.92;8.13;;;18.30;99.90;;;;;;3566975;40;20236;-78
2021/07/16 08:07:12;;;;;;;25.40;6.30;;;18.30;99.90;;;;;;3567392;40;20044;-76
2021/07/16 08:09:38;;;;;;;25.90;6.70;;;18.40;99.90;;;;;;3574275;40;20044;-77
2021/07/16 08:12:05;;;;;;;20.23;6.47;;;18.40;99.90;;;;;;3568365;40;20068;-75
2021/07/16 08:14:31;;;;;;;31.95;7.03;;;18.40;99.90;;;;;;3576491;40;20041;-76
2021/07/16 08:16:57;;;;;;;21.92;5.15;;;18.50;99.90;;;;;;3568345;40;20035;-75
2021/07/16 08:19:23;;;;;;;23.02;5.35;;;18.50;99.90;;;;;;3583714;40;20036;-76
2021/07/16 08:21:52;;;;;;;27.88;5.93;;;18.60;99.90;;;;;;3581524;40;20040;-75
2021/07/16 08:24:19;;;;;;;23.95;5.35;;;18.60;99.90;;;;;;3581482;40;20096;-75
2021/07/16 08:26:46;;;;;;;26.05;7.25;;;18.60;99.90;;;;;;3583710;40;20042;-75
2021/07/16 08:29:12;;;;;;;19.45;5.15;;;18.60;99.90;;;;;;3582578;40;20037;-76
2021/07/16 08:31:39;;;;;;;26.58;6.35;;;18.70;99.90;;;;;;3573370;40;20238;-76
2021/07/16 08:34:06;;;;;;;27.25;8.07;;;18.70;99.90;;;;;;3584615;40;20047;-76
2021/07/16 08:36:34;;;;;;;32.05;6.97;;;18.80;99.90;;;;;;3585481;40;20047;-81
2021/07/16 08:39:00;;;;;;;28.13;7.03;;;18.80;99.90;;;;;;3578714;40;20041;-81
2021/07/16 08:41:26;;;;;;;25.25;5.88;;;18.80;99.90;;;;;;3580307;40;20474;-80
2021/07/16 08:43:53;;;;;;;18.77;6.13;;;18.80;99.90;;;;;;3582021;40;20044;-77
2021/07/16 08:46:20;;;;;;;25.27;5.53;;;18.80;99.90;;;;;;3576422;40;20402;-79
2021/07/16 08:48:48;;;;;;;23.98;6.07;;;18.80;99.90;;;;;;3570167;40;20051;-76
2021/07/16 08:51:20;;;;;;;29.05;8.05;;;18.80;99.90;;;;;;3581224;40;20044;-75
2021/07/16 08:53:49;;;;;;;23.50;5.97;;;18.70;99.90;;;;;;3574701;40;20041;-75
2021/07/16 08:56:16;;;;;;;30.30;7.15;;;18.80;99.90;;;;;;3574767;40;20320;-78
2021/07/16 08:58:42;;;;;;;21.30;6.20;;;18.80;99.90;;;;;;3571483;40;20060;-76
2021/07/16 09:01:10;;;;;;;26.08;5.72;;;18.80;99.90;;;;;;3582232;40;20040;-75
2021/07/16 09:03:37;;;;;;;24.98;7.75;;;18.80;99.90;;;;;;3579707;40;20103;-79
2021/07/16 09:06:05;;;;;;;29.58;5.38;;;18.90;99.90;;;;;;3582666;40;20559;-76
2021/07/16 09:08:31;;;;;;;26.25;5.60;;;18.90;99.90;;;;;;3577924;40;20057;-77
2021/07/16 09:10:59;;;;;;;23.90;7.53;;;19.00;99.90;;;;;;3583495;40;20046;-80
2021/07/16 09:13:26;;;;;;;22.08;6.28;;;19.00;99.90;;;;;;3581641;40;20037;-76
2021/07/16 09:15:56;;;;;;;25.05;5.28;;;19.00;99.90;;;;;;3583730;40;20092;-75
2021/07/16 09:18:32;;;;;;;22.65;6.80;;;19.00;99.90;;;;;;3573820;40;20047;-75
2021/07/16 09:21:01;;;;;;;23.77;7.13;;;19.00;99.90;;;;;;3581152;40;20341;-80
2021/07/16 09:23:40;;;;;;;20.73;5.70;;;19.00;99.90;;;;;;3579476;40;20040;-79
2021/07/16 09:26:12;;;;;;;25.75;6.95;;;19.00;99.90;;;;;;3582413;40;20044;-76
2021/07/16 09:28:48;;;;;;;25.98;6.88;;;19.00;99.90;;;;;;3583554;40;20367;-76
2021/07/16 09:31:19;;;;;;;24.08;6.63;;;19.00;99.90;;;;;;3584775;40;20047;-75
2021/07/16 09:34:03;;;;;;;20.45;5.95;;;19.00;99.90;;;;;;3577203;40;20125;-77
2021/07/16 09:36:34;;;;;;;25.45;6.53;;;19.00;99.90;;;;;;3579179;40;20162;-76
2021/07/16 09:39:09;;;;;;;19.60;6.72;;;19.10;99.90;;;;;;3583593;40;20059;-79
2021/07/16 09:41:53;;;;;;;21.15;5.93;;;19.10;99.90;;;;;;3582302;40;20315;-78
2021/07/16 09:44:29;;;;;;;27.48;6.20;;;19.10;99.90;;;;;;3575471;40;20060;-78
2021/07/16 09:47:20;;;;;;;25.52;6.50;;;19.20;99.90;;;;;;3578010;40;20041;-76
2021/07/16 09:49:48;;;;;;;25.35;6.22;;;19.30;99.90;;;;;;3577675;40;20402;-75
2021/07/16 09:52:19;;;;;;;21.10;6.20;;;19.30;99.90;;;;;;3568584;40;20040;-78
2021/07/16 09:55:20;;;;;;;31.45;7.50;;;19.30;99.90;;;;;;3576915;40;20086;-75
2021/07/16 09:57:48;;;;;;;27.48;8.18;;;19.30;99.40;;;;;;3575733;40;20053;-75
2021/07/16 10:00:18;;;;;;;28.17;7.60;;;19.30;99.90;;;;;;3568682;40;20041;-77
2021/07/16 10:02:46;;;;;;;21.45;7.38;;;19.30;99.90;;;;;;3575948;40;20126;-76
2021/07/16 10:05:12;;;;;;;20.73;6.40;;;19.30;99.90;;;;;;3578211;40;20045;-75
2021/07/16 10:07:42;;;;;;;18.00;7.05;;;19.40;99.90;;;;;;3578232;40;20041;-76
2021/07/16 10:10:18;;;;;;;25.55;7.20;;;19.50;99.90;;;;;;3569478;40;20081;-75
2021/07/16 10:12:46;;;;;;;23.42;6.80;;;19.60;99.60;;;;;;3577268;40;20041;-79
2021/07/16 10:15:13;;;;;;;26.33;7.47;;;19.60;99.90;;;;;;3579117;40;20068;-76
2021/07/16 10:17:40;;;;;;;26.35;8.32;;;19.60;99.90;;;;;;3578340;40;20056;-76
2021/07/16 10:20:14;;;;;;;18.58;6.18;;;19.60;99.90;;;;;;3567469;40;20049;-77
2021/07/16 10:22:41;;;;;;;23.40;7.10;;;19.70;99.90;;;;;;3578644;40;20145;-76
2021/07/16 10:25:10;;;;;;;30.38;7.00;;;19.80;99.90;;;;;;3570159;40;20150;-76
2021/07/16 10:27:39;;;;;;;25.23;7.28;;;19.80;99.90;;;;;;3578783;40;20112;-78
2021/07/16 10:30:30;;;;;;;23.85;8.20;;;19.80;99.90;;;;;;3577828;40;20422;-77
2021/07/16 10:32:56;;;;;;;20.10;7.28;;;19.80;98.90;;;;;;3578081;40;20347;-80
2021/07/16 10:35:27;;;;;;;23.00;6.90;;;19.80;99.90;;;;;;3569341;40;20049;-77
2021/07/16 10:38:00;;;;;;;19.50;6.50;;;19.90;99.90;;;;;;3568743;40;20383;-80
2021/07/16 10:40:29;;;;;;;;;;;19.90;99.90;;;;;;3578771;40;20048;-81
2021/07/16 10:42:55;;;;;;;27.02;7.85;;;19.90;98.20;;;;;;3577200;40;19937;-82
2021/07/16 10:45:33;;;;;;;27.52;7.88;;;19.90;99.80;;;;;;3568460;40;20376;-80
2021/07/16 10:48:20;;;;;;;20.63;7.07;;;19.90;99.70;;;;;;3577634;40;20117;-76
2021/07/16 10:50:51;;;;;;;26.13;7.20;;;19.90;99.60;;;;;;3576024;40;20048;-79
2021/07/16 10:53:38;;;;;;;19.13;6.22;;;20.00;99.90;;;;;;3568175;40;20312;-80
2021/07/16 10:56:10;;;;;;;18.08;7.10;;;20.20;99.40;;;;;;3576369;40;20044;-80
2021/07/16 10:58:36;;;;;;;24.13;8.93;;;20.30;99.60;;;;;;3575730;40;20044;-79
2021/07/16 11:01:04;;;;;;;19.10;7.35;;;20.30;99.70;;;;;;3577773;40;20048;-80
2021/07/16 11:03:43;;;;;;;24.65;6.20;;;20.30;99.60;;;;;;3578456;40;20045;-80
2021/07/16 11:06:11;;;;;;;18.73;7.15;;;20.30;99.10;;;;;;3578385;40;20052;-79
2021/07/16 11:08:37;;;;;;;25.10;9.30;;;20.30;99.50;;;;;;3578195;40;20045;-80
2021/07/16 11:11:05;;;;;;;24.55;6.78;;;20.30;99.70;;;;;;3578825;40;20036;-80
2021/07/16 11:13:42;;;;;;;20.17;7.18;;;20.40;99.80;;;;;;3567259;40;20052;-80
2021/07/16 11:16:32;;;;;;;25.15;7.93;;;20.50;99.30;;;;;;3578052;40;20088;-79
2021/07/16 11:19:02;;;;;;;26.80;7.93;;;20.50;99.20;;;;;;3581390;40;20652;-80
2021/07/16 11:21:45;;;;;;;18.85;6.47;;;20.50;99.40;;;;;;3569020;40;20103;-80
2021/07/16 11:24:24;;;;;;;31.17;9.75;;;20.50;99.40;;;;;;3583075;40;20166;-80
2021/07/16 11:26:56;;;;;;;22.80;7.20;;;20.60;99.50;;;;;;3586403;40;20050;-79
2021/07/16 11:29:43;;;;;;;29.88;9.02;;;20.60;99.30;;;;;;3583243;40;20044;-79
2021/07/16 11:32:16;;;;;;;24.30;6.68;;;20.70;96.60;;;;;;3578844;40;20330;-80
2021/07/16 11:34:52;;;;;;;20.05;8.57;;;20.60;99.10;;;;;;3581021;40;20048;-79
2021/07/16 11:37:23;;;;;;;23.95;8.43;;;20.60;99.20;;;;;;3583413;40;20109;-77
2021/07/16 11:39:53;;;;;;;24.98;8.57;;;20.70;98.90;;;;;;3583266;40;20044;-79
2021/07/16 11:42:20;;;;;;;20.80;7.82;;;20.70;99.30;;;;;;3584448;40;20481;-80
2021/07/16 11:44:48;;;;;;;19.23;6.70;;;20.80;98.70;;;;;;3584214;40;20039;-79
2021/07/16 11:47:21;;;;;;;25.02;6.90;;;20.80;98.40;;;;;;3585770;40;20039;-79
2021/07/16 11:49:55;;;;;;;25.65;7.60;;;20.80;98.30;;;;;;3585405;40;20033;-81
2021/07/16 11:52:26;;;;;;;28.20;6.78;;;20.80;97.90;;;;;;3585898;40;20040;-81
2021/07/16 11:55:14;;;;;;;27.13;9.82;;;20.80;98.30;;;;;;3580096;40;20323;-81
2021/07/16 11:57:56;;;;;;;19.05;6.53;;;20.90;96.70;;;;;;3580705;40;20040;-80
2021/07/16 12:00:25;;;;;;;25.17;8.27;;;20.90;97.50;;;;;;3583384;40;20047;-79
2021/07/16 12:02:59;;;;;;;19.13;6.47;;;20.80;98.10;;;;;;3583313;40;20048;-79
2021/07/16 12:05:25;;;;;;;21.98;6.35;;;20.70;98.40;;;;;;3585197;40;20102;-78
2021/07/16 12:07:51;;;;;;;25.92;8.18;;;20.80;99.30;;;;;;3583856;40;20405;-82
2021/07/16 12:10:19;;;;;;;26.27;8.18;;;20.90;98.60;;;;;;3575737;40;20351;-77
2021/07/16 12:12:46;;;;;;;29.35;8.48;;;21.00;98.80;;;;;;3585078;40;20048;-78
2021/07/16 12:15:18;;;;;;;20.85;7.70;;;21.10;98.90;;;;;;3576727;40;20040;-77
2021/07/16 12:17:59;;;;;;;24.90;7.57;;;21.40;98.80;;;;;;3570692;40;20052;-76
2021/07/16 12:20:33;;;;;;;23.75;7.63;;;21.50;98.10;;;;;;3578212;40;20347;-78
2021/07/16 12:23:05;;;;;;;25.95;7.78;;;21.50;95.70;;;;;;3585797;40;20036;-79
2021/07/16 12:25:31;;;;;;;21.73;6.47;;;21.50;97.50;;;;;;3567265;40;20040;-79
2021/07/16 12:28:15;;;;;;;22.50;8.10;;;21.50;98.10;;;;;;3581246;40;20037;-79
2021/07/16 12:30:41;;;;;;;21.65;7.15;;;21.50;96.00;;;;;;3572463;40;20043;-79
2021/07/16 12:33:08;;;;;;;21.48;7.85;;;21.50;98.00;;;;;;3580501;40;20047;-79
2021/07/16 12:35:44;;;;;;;24.10;8.50;;;21.60;98.10;;;;;;3580376;40;20036;-80
2021/07/16 12:38:15;;;;;;;24.35;9.25;;;21.60;96.80;;;;;;3582584;40;20037;-80
2021/07/16 12:40:47;;;;;;;18.10;6.35;;;21.70;97.60;;;;;;3583936;40;20041;-79
2021/07/16 12:43:19;;;;;;;23.48;6.85;;;21.80;97.60;;;;;;3584742;40;20052;-80
2021/07/16 12:45:47;;;;;;;15.60;6.80;;;21.90;97.30;;;;;;3584767;40;20040;-80